sensor_id;sensor_type;location;lat;lon;timestamp;P1;durP1;ratioP1;P2;durP2;ratioP2
39020;SDS011;25188;51.958;5.842;2024-02-26T00:01:26;3.83;;;1.83;;
39020;SDS011;25188;51.958;5.842;2024-02-26T00:03:52;4.80;;;1.43;;
39020;SDS011;25188;51.958;5.842;2024-02-26T00:06:19;5.57;;;2.03;;
39020;SDS011;25188;51.958;5.842;2024-02-26T00:08:46;5.77;;;2.27;;
39020;SDS011;25188;51.958;5.842;2024-02-26T00:11:12;4.00;;;1.90;;
39020;SDS011;25188;51.958;5.842;2024-02-26T00:13:37;5.30;;;2.30;;
39020;SDS011;25188;51.958;5.842;2024-02-26T00:16:03;4.23;;;2.43;;
39020;SDS011;25188;51.958;5.842;2024-02-26T00:18:29;4.33;;;2.33;;
39020;SDS011;25188;51.958;5.842;2024-02-26T00:20:55;5.23;;;2.53;;
39020;SDS011;25188;51.958;5.842;2024-02-26T00:23:21;4.47;;;2.10;;
39020;SDS011;25188;51.958;5.842;2024-02-26T00:25:48;5.77;;;2.23;;
39020;SDS011;25188;51.958;5.842;2024-02-26T00:28:13;4.53;;;2.40;;
39020;SDS011;25188;51.958;5.842;2024-02-26T00:30:39;3.37;;;1.97;;
39020;SDS011;25188;51.958;5.842;2024-02-26T00:33:04;4.30;;;2.20;;
39020;SDS011;25188;51.958;5.842;2024-02-26T00:35:30;3.53;;;2.33;;
39020;SDS011;25188;51.958;5.842;2024-02-26T00:37:56;5.33;;;2.23;;
39020;SDS011;25188;51.958;5.842;2024-02-26T00:40:23;4.53;;;2.10;;
39020;SDS011;25188;51.958;5.842;2024-02-26T00:42:49;4.33;;;2.07;;
39020;SDS011;25188;51.958;5.842;2024-02-26T00:45:15;3.57;;;2.10;;
39020;SDS011;25188;51.958;5.842;2024-02-26T00:47:41;7.27;;;2.37;;
39020;SDS011;25188;51.958;5.842;2024-02-26T00:50:07;4.70;;;2.10;;
39020;SDS011;25188;51.958;5.842;2024-02-26T00:52:34;4.27;;;2.17;;
39020;SDS011;25188;51.958;5.842;2024-02-26T00:55:01;7.07;;;2.67;;
39020;SDS011;25188;51.958;5.842;2024-02-26T00:57:28;3.67;;;2.33;;
39020;SDS011;25188;51.958;5.842;2024-02-26T00:59:53;5.57;;;2.70;;
39020;SDS011;25188;51.958;5.842;2024-02-26T01:02:21;3.53;;;2.10;;
39020;SDS011;25188;51.958;5.842;2024-02-26T01:04:47;5.93;;;2.93;;
39020;SDS011;25188;51.958;5.842;2024-02-26T01:07:13;4.80;;;2.57;;
39020;SDS011;25188;51.958;5.842;2024-02-26T01:09:39;4.53;;;2.00;;
39020;SDS011;25188;51.958;5.842;2024-02-26T01:12:04;5.03;;;2.33;;
39020;SDS011;25188;51.958;5.842;2024-02-26T01:14:30;5.77;;;2.73;;
39020;SDS011;25188;51.958;5.842;2024-02-26T01:16:56;4.10;;;2.17;;
39020;SDS011;25188;51.958;5.842;2024-02-26T01:19:22;4.77;;;2.13;;
39020;SDS011;25188;51.958;5.842;2024-02-26T01:21:47;3.67;;;1.83;;
39020;SDS011;25188;51.958;5.842;2024-02-26T01:24:13;6.27;;;2.30;;
39020;SDS011;25188;51.958;5.842;2024-02-26T01:26:40;5.97;;;2.10;;
39020;SDS011;25188;51.958;5.842;2024-02-26T01:29:06;4.23;;;1.80;;
39020;SDS011;25188;51.958;5.842;2024-02-26T01:31:32;3.97;;;1.60;;
39020;SDS011;25188;51.958;5.842;2024-02-26T01:33:57;4.30;;;1.80;;
39020;SDS011;25188;51.958;5.842;2024-02-26T01:36:23;5.00;;;1.83;;
39020;SDS011;25188;51.958;5.842;2024-02-26T01:38:49;5.10;;;1.80;;
39020;SDS011;25188;51.958;5.842;2024-02-26T01:41:14;4.50;;;2.07;;
39020;SDS011;25188;51.958;5.842;2024-02-26T01:43:40;5.77;;;2.20;;
39020;SDS011;25188;51.958;5.842;2024-02-26T01:46:06;3.97;;;1.97;;
39020;SDS011;25188;51.958;5.842;2024-02-26T01:48:37;4.67;;;2.07;;
39020;SDS011;25188;51.958;5.842;2024-02-26T01:51:03;5.17;;;2.07;;
39020;SDS011;25188;51.958;5.842;2024-02-26T01:53:28;4.60;;;1.83;;
39020;SDS011;25188;51.958;5.842;2024-02-26T01:55:55;2.97;;;1.37;;
39020;SDS011;25188;51.958;5.842;2024-02-26T01:58:20;3.47;;;1.77;;
39020;SDS011;25188;51.958;5.842;2024-02-26T02:00:46;4.97;;;1.70;;
39020;SDS011;25188;51.958;5.842;2024-02-26T02:03:12;4.07;;;2.03;;
39020;SDS011;25188;51.958;5.842;2024-02-26T02:05:38;6.43;;;1.90;;
39020;SDS011;25188;51.958;5.842;2024-02-26T02:08:07;3.80;;;1.87;;
39020;SDS011;25188;51.958;5.842;2024-02-26T02:10:36;4.50;;;1.60;;
39020;SDS011;25188;51.958;5.842;2024-02-26T02:13:03;3.70;;;1.80;;
39020;SDS011;25188;51.958;5.842;2024-02-26T02:15:29;4.73;;;1.93;;
39020;SDS011;25188;51.958;5.842;2024-02-26T02:17:54;3.60;;;1.80;;
39020;SDS011;25188;51.958;5.842;2024-02-26T02:20:24;3.93;;;2.00;;
39020;SDS011;25188;51.958;5.842;2024-02-26T02:22:58;6.90;;;2.43;;
39020;SDS011;25188;51.958;5.842;2024-02-26T02:25:23;3.50;;;2.07;;
39020;SDS011;25188;51.958;5.842;2024-02-26T02:27:49;3.47;;;1.90;;
39020;SDS011;25188;51.958;5.842;2024-02-26T02:30:16;4.03;;;1.77;;
39020;SDS011;25188;51.958;5.842;2024-02-26T02:32:42;5.43;;;2.07;;
39020;SDS011;25188;51.958;5.842;2024-02-26T02:35:09;4.37;;;2.50;;
39020;SDS011;25188;51.958;5.842;2024-02-26T02:37:34;5.03;;;2.50;;
39020;SDS011;25188;51.958;5.842;2024-02-26T02:40:00;5.13;;;2.67;;
39020;SDS011;25188;51.958;5.842;2024-02-26T02:42:26;5.13;;;2.30;;
39020;SDS011;25188;51.958;5.842;2024-02-26T02:44:51;4.77;;;2.43;;
39020;SDS011;25188;51.958;5.842;2024-02-26T02:47:17;5.80;;;2.47;;
39020;SDS011;25188;51.958;5.842;2024-02-26T02:49:43;5.03;;;2.37;;
39020;SDS011;25188;51.958;5.842;2024-02-26T02:52:08;4.60;;;2.60;;
39020;SDS011;25188;51.958;5.842;2024-02-26T02:54:34;5.17;;;2.30;;
39020;SDS011;25188;51.958;5.842;2024-02-26T02:57:01;4.20;;;2.30;;
39020;SDS011;25188;51.958;5.842;2024-02-26T02:59:28;5.63;;;2.80;;
39020;SDS011;25188;51.958;5.842;2024-02-26T03:01:53;6.10;;;2.63;;
39020;SDS011;25188;51.958;5.842;2024-02-26T03:04:19;7.07;;;2.60;;
39020;SDS011;25188;51.958;5.842;2024-02-26T03:06:45;5.77;;;2.70;;
39020;SDS011;25188;51.958;5.842;2024-02-26T03:09:10;4.97;;;2.50;;
39020;SDS011;25188;51.958;5.842;2024-02-26T03:11:36;4.73;;;2.30;;
39020;SDS011;25188;51.958;5.842;2024-02-26T03:14:02;4.60;;;2.50;;
39020;SDS011;25188;51.958;5.842;2024-02-26T03:16:28;6.40;;;2.60;;
39020;SDS011;25188;51.958;5.842;2024-02-26T03:18:53;4.73;;;1.80;;
39020;SDS011;25188;51.958;5.842;2024-02-26T03:21:19;3.30;;;1.73;;
39020;SDS011;25188;51.958;5.842;2024-02-26T03:23:45;3.63;;;2.00;;
39020;SDS011;25188;51.958;5.842;2024-02-26T03:26:11;5.07;;;2.00;;
39020;SDS011;25188;51.958;5.842;2024-02-26T03:28:39;4.37;;;1.90;;
39020;SDS011;25188;51.958;5.842;2024-02-26T03:31:05;4.83;;;2.70;;
39020;SDS011;25188;51.958;5.842;2024-02-26T03:33:31;4.60;;;2.47;;
39020;SDS011;25188;51.958;5.842;2024-02-26T03:35:56;4.90;;;2.13;;
39020;SDS011;25188;51.958;5.842;2024-02-26T03:38:22;5.20;;;1.57;;
39020;SDS011;25188;51.958;5.842;2024-02-26T03:40:48;4.60;;;2.07;;
39020;SDS011;25188;51.958;5.842;2024-02-26T03:43:14;4.23;;;2.10;;
39020;SDS011;25188;51.958;5.842;2024-02-26T03:45:39;4.53;;;2.40;;
39020;SDS011;25188;51.958;5.842;2024-02-26T03:48:05;4.70;;;1.80;;
39020;SDS011;25188;51.958;5.842;2024-02-26T03:50:31;4.00;;;1.87;;
39020;SDS011;25188;51.958;5.842;2024-02-26T03:52:57;4.83;;;2.23;;
39020;SDS011;25188;51.958;5.842;2024-02-26T03:55:23;3.73;;;2.00;;
39020;SDS011;25188;51.958;5.842;2024-02-26T03:57:50;4.90;;;2.43;;
39020;SDS011;25188;51.958;5.842;2024-02-26T04:00:16;6.50;;;2.50;;
39020;SDS011;25188;51.958;5.842;2024-02-26T04:02:42;6.30;;;3.20;;
39020;SDS011;25188;51.958;5.842;2024-02-26T04:05:11;4.13;;;2.20;;
39020;SDS011;25188;51.958;5.842;2024-02-26T04:07:37;5.57;;;2.80;;
39020;SDS011;25188;51.958;5.842;2024-02-26T04:10:02;4.27;;;2.37;;
39020;SDS011;25188;51.958;5.842;2024-02-26T04:12:30;5.23;;;2.87;;
39020;SDS011;25188;51.958;5.842;2024-02-26T04:14:55;4.93;;;2.43;;
39020;SDS011;25188;51.958;5.842;2024-02-26T04:17:21;7.13;;;2.93;;
39020;SDS011;25188;51.958;5.842;2024-02-26T04:19:47;5.23;;;2.80;;
39020;SDS011;25188;51.958;5.842;2024-02-26T04:22:12;6.23;;;3.60;;
39020;SDS011;25188;51.958;5.842;2024-02-26T04:24:38;5.83;;;2.80;;
39020;SDS011;25188;51.958;5.842;2024-02-26T04:27:04;5.43;;;3.20;;
39020;SDS011;25188;51.958;5.842;2024-02-26T04:29:29;5.13;;;3.30;;
39020;SDS011;25188;51.958;5.842;2024-02-26T04:31:55;7.13;;;3.63;;
39020;SDS011;25188;51.958;5.842;2024-02-26T04:34:21;7.27;;;3.63;;
39020;SDS011;25188;51.958;5.842;2024-02-26T04:36:46;6.27;;;3.53;;
39020;SDS011;25188;51.958;5.842;2024-02-26T04:39:13;6.63;;;3.20;;
39020;SDS011;25188;51.958;5.842;2024-02-26T04:41:38;6.87;;;3.50;;
39020;SDS011;25188;51.958;5.842;2024-02-26T04:44:04;6.10;;;3.00;;
39020;SDS011;25188;51.958;5.842;2024-02-26T04:46:30;6.47;;;3.10;;
39020;SDS011;25188;51.958;5.842;2024-02-26T04:48:56;7.30;;;3.83;;
39020;SDS011;25188;51.958;5.842;2024-02-26T04:51:21;7.10;;;3.47;;
39020;SDS011;25188;51.958;5.842;2024-02-26T04:53:47;6.77;;;4.07;;
39020;SDS011;25188;51.958;5.842;2024-02-26T04:56:13;7.87;;;4.57;;
39020;SDS011;25188;51.958;5.842;2024-02-26T04:58:38;6.90;;;3.90;;
39020;SDS011;25188;51.958;5.842;2024-02-26T05:01:04;8.20;;;4.53;;
39020;SDS011;25188;51.958;5.842;2024-02-26T05:03:30;6.73;;;3.77;;
39020;SDS011;25188;51.958;5.842;2024-02-26T05:05:56;7.73;;;4.30;;
39020;SDS011;25188;51.958;5.842;2024-02-26T05:08:23;7.80;;;4.33;;
39020;SDS011;25188;51.958;5.842;2024-02-26T05:10:49;8.17;;;4.00;;
39020;SDS011;25188;51.958;5.842;2024-02-26T05:13:14;9.37;;;5.10;;
39020;SDS011;25188;51.958;5.842;2024-02-26T05:15:43;9.13;;;4.77;;
39020;SDS011;25188;51.958;5.842;2024-02-26T05:18:10;5.83;;;3.73;;
39020;SDS011;25188;51.958;5.842;2024-02-26T05:20:35;9.43;;;4.57;;
39020;SDS011;25188;51.958;5.842;2024-02-26T05:23:02;7.80;;;4.43;;
39020;SDS011;25188;51.958;5.842;2024-02-26T05:25:29;7.10;;;4.23;;
39020;SDS011;25188;51.958;5.842;2024-02-26T05:27:55;9.33;;;4.43;;
39020;SDS011;25188;51.958;5.842;2024-02-26T05:30:20;7.93;;;4.73;;
39020;SDS011;25188;51.958;5.842;2024-02-26T05:32:46;9.07;;;5.10;;
39020;SDS011;25188;51.958;5.842;2024-02-26T05:35:12;8.40;;;4.30;;
39020;SDS011;25188;51.958;5.842;2024-02-26T05:37:37;8.37;;;4.73;;
39020;SDS011;25188;51.958;5.842;2024-02-26T05:40:04;8.20;;;4.70;;
39020;SDS011;25188;51.958;5.842;2024-02-26T05:42:30;7.17;;;4.23;;
39020;SDS011;25188;51.958;5.842;2024-02-26T05:44:56;8.47;;;5.07;;
39020;SDS011;25188;51.958;5.842;2024-02-26T05:47:22;9.20;;;5.20;;
39020;SDS011;25188;51.958;5.842;2024-02-26T05:49:48;9.80;;;5.20;;
39020;SDS011;25188;51.958;5.842;2024-02-26T05:52:14;8.93;;;4.90;;
39020;SDS011;25188;51.958;5.842;2024-02-26T05:54:39;10.93;;;4.93;;
39020;SDS011;25188;51.958;5.842;2024-02-26T05:57:05;8.23;;;4.83;;
39020;SDS011;25188;51.958;5.842;2024-02-26T05:59:31;8.87;;;4.50;;
39020;SDS011;25188;51.958;5.842;2024-02-26T06:01:56;9.87;;;4.63;;
39020;SDS011;25188;51.958;5.842;2024-02-26T06:04:22;9.67;;;4.77;;
39020;SDS011;25188;51.958;5.842;2024-02-26T06:06:48;7.73;;;4.60;;
39020;SDS011;25188;51.958;5.842;2024-02-26T06:09:14;9.20;;;5.30;;
39020;SDS011;25188;51.958;5.842;2024-02-26T06:11:40;7.40;;;4.80;;
39020;SDS011;25188;51.958;5.842;2024-02-26T06:14:05;7.93;;;4.53;;
39020;SDS011;25188;51.958;5.842;2024-02-26T06:16:31;9.23;;;4.17;;
39020;SDS011;25188;51.958;5.842;2024-02-26T06:18:58;9.47;;;4.13;;
39020;SDS011;25188;51.958;5.842;2024-02-26T06:21:25;9.17;;;4.47;;
39020;SDS011;25188;51.958;5.842;2024-02-26T06:23:51;7.93;;;4.50;;
39020;SDS011;25188;51.958;5.842;2024-02-26T06:26:16;8.13;;;4.27;;
39020;SDS011;25188;51.958;5.842;2024-02-26T06:28:42;7.47;;;4.77;;
39020;SDS011;25188;51.958;5.842;2024-02-26T06:31:08;8.17;;;4.67;;
39020;SDS011;25188;51.958;5.842;2024-02-26T06:33:33;7.17;;;4.20;;
39020;SDS011;25188;51.958;5.842;2024-02-26T06:35:59;7.47;;;4.00;;
39020;SDS011;25188;51.958;5.842;2024-02-26T06:38:25;7.57;;;4.00;;
39020;SDS011;25188;51.958;5.842;2024-02-26T06:40:50;11.20;;;4.57;;
39020;SDS011;25188;51.958;5.842;2024-02-26T06:43:16;7.60;;;4.60;;
39020;SDS011;25188;51.958;5.842;2024-02-26T06:45:42;7.13;;;4.23;;
39020;SDS011;25188;51.958;5.842;2024-02-26T06:48:07;8.60;;;4.80;;
39020;SDS011;25188;51.958;5.842;2024-02-26T06:50:33;7.53;;;4.27;;
39020;SDS011;25188;51.958;5.842;2024-02-26T06:52:59;8.30;;;4.30;;
39020;SDS011;25188;51.958;5.842;2024-02-26T06:55:24;7.93;;;4.43;;
39020;SDS011;25188;51.958;5.842;2024-02-26T06:57:50;7.00;;;4.40;;
39020;SDS011;25188;51.958;5.842;2024-02-26T07:00:16;7.10;;;4.33;;
39020;SDS011;25188;51.958;5.842;2024-02-26T07:02:42;7.47;;;4.03;;
39020;SDS011;25188;51.958;5.842;2024-02-26T07:05:08;7.53;;;4.43;;
39020;SDS011;25188;51.958;5.842;2024-02-26T07:07:34;10.77;;;5.67;;
39020;SDS011;25188;51.958;5.842;2024-02-26T07:10:00;8.97;;;4.80;;
39020;SDS011;25188;51.958;5.842;2024-02-26T07:12:28;10.20;;;5.50;;
39020;SDS011;25188;51.958;5.842;2024-02-26T07:14:55;9.20;;;5.37;;
39020;SDS011;25188;51.958;5.842;2024-02-26T07:17:20;9.63;;;5.53;;
39020;SDS011;25188;51.958;5.842;2024-02-26T07:19:46;12.40;;;5.77;;
39020;SDS011;25188;51.958;5.842;2024-02-26T07:22:12;10.17;;;6.13;;
39020;SDS011;25188;51.958;5.842;2024-02-26T07:24:38;10.93;;;6.57;;
39020;SDS011;25188;51.958;5.842;2024-02-26T07:27:04;11.50;;;6.90;;
39020;SDS011;25188;51.958;5.842;2024-02-26T07:29:30;11.47;;;7.47;;
39020;SDS011;25188;51.958;5.842;2024-02-26T07:31:56;11.53;;;6.73;;
39020;SDS011;25188;51.958;5.842;2024-02-26T07:34:22;12.90;;;7.23;;
39020;SDS011;25188;51.958;5.842;2024-02-26T07:36:52;12.17;;;7.70;;
39020;SDS011;25188;51.958;5.842;2024-02-26T07:39:18;11.23;;;6.37;;
39020;SDS011;25188;51.958;5.842;2024-02-26T07:41:44;13.00;;;7.20;;
39020;SDS011;25188;51.958;5.842;2024-02-26T07:44:13;12.80;;;7.67;;
39020;SDS011;25188;51.958;5.842;2024-02-26T07:46:39;12.67;;;8.03;;
39020;SDS011;25188;51.958;5.842;2024-02-26T07:49:04;14.63;;;8.27;;
39020;SDS011;25188;51.958;5.842;2024-02-26T07:51:30;14.80;;;9.23;;
39020;SDS011;25188;51.958;5.842;2024-02-26T07:53:56;12.90;;;7.67;;
39020;SDS011;25188;51.958;5.842;2024-02-26T07:56:22;14.97;;;8.43;;
39020;SDS011;25188;51.958;5.842;2024-02-26T07:58:47;15.60;;;9.00;;
39020;SDS011;25188;51.958;5.842;2024-02-26T08:01:13;16.47;;;9.63;;
39020;SDS011;25188;51.958;5.842;2024-02-26T08:03:39;15.47;;;9.93;;
39020;SDS011;25188;51.958;5.842;2024-02-26T08:06:05;16.27;;;9.97;;
39020;SDS011;25188;51.958;5.842;2024-02-26T08:08:32;16.17;;;10.13;;
39020;SDS011;25188;51.958;5.842;2024-02-26T08:10:58;14.37;;;8.77;;
39020;SDS011;25188;51.958;5.842;2024-02-26T08:13:24;16.30;;;9.43;;
39020;SDS011;25188;51.958;5.842;2024-02-26T08:15:51;20.20;;;11.23;;
39020;SDS011;25188;51.958;5.842;2024-02-26T08:18:17;18.97;;;11.10;;
39020;SDS011;25188;51.958;5.842;2024-02-26T08:20:43;16.27;;;10.67;;
39020;SDS011;25188;51.958;5.842;2024-02-26T08:23:08;16.40;;;10.23;;
39020;SDS011;25188;51.958;5.842;2024-02-26T08:25:34;17.53;;;10.13;;
39020;SDS011;25188;51.958;5.842;2024-02-26T08:28:00;17.50;;;10.80;;
39020;SDS011;25188;51.958;5.842;2024-02-26T08:30:25;17.40;;;10.00;;
39020;SDS011;25188;51.958;5.842;2024-02-26T08:32:51;18.63;;;10.80;;
39020;SDS011;25188;51.958;5.842;2024-02-26T08:35:17;20.33;;;11.57;;
39020;SDS011;25188;51.958;5.842;2024-02-26T08:37:46;19.63;;;11.10;;
39020;SDS011;25188;51.958;5.842;2024-02-26T08:40:13;18.83;;;10.57;;
39020;SDS011;25188;51.958;5.842;2024-02-26T08:42:39;20.73;;;11.53;;
39020;SDS011;25188;51.958;5.842;2024-02-26T08:45:05;16.43;;;9.73;;
39020;SDS011;25188;51.958;5.842;2024-02-26T08:47:31;18.47;;;10.70;;
39020;SDS011;25188;51.958;5.842;2024-02-26T08:49:57;19.63;;;11.60;;
39020;SDS011;25188;51.958;5.842;2024-02-26T08:52:23;19.50;;;11.67;;
39020;SDS011;25188;51.958;5.842;2024-02-26T08:54:49;21.43;;;12.90;;
39020;SDS011;25188;51.958;5.842;2024-02-26T08:57:15;19.73;;;11.17;;
39020;SDS011;25188;51.958;5.842;2024-02-26T08:59:41;20.53;;;12.17;;
39020;SDS011;25188;51.958;5.842;2024-02-26T09:02:07;18.70;;;11.23;;
39020;SDS011;25188;51.958;5.842;2024-02-26T09:04:34;22.03;;;12.27;;
39020;SDS011;25188;51.958;5.842;2024-02-26T09:07:00;17.97;;;10.93;;
39020;SDS011;25188;51.958;5.842;2024-02-26T09:09:27;23.60;;;13.00;;
39020;SDS011;25188;51.958;5.842;2024-02-26T09:11:52;24.23;;;13.33;;
39020;SDS011;25188;51.958;5.842;2024-02-26T09:14:20;20.47;;;12.13;;
39020;SDS011;25188;51.958;5.842;2024-02-26T09:16:46;22.20;;;12.63;;
39020;SDS011;25188;51.958;5.842;2024-02-26T09:19:13;22.17;;;12.83;;
39020;SDS011;25188;51.958;5.842;2024-02-26T09:21:42;22.77;;;11.67;;
39020;SDS011;25188;51.958;5.842;2024-02-26T09:24:09;23.63;;;12.10;;
39020;SDS011;25188;51.958;5.842;2024-02-26T09:26:35;23.60;;;12.17;;
39020;SDS011;25188;51.958;5.842;2024-02-26T09:29:04;21.93;;;12.13;;
39020;SDS011;25188;51.958;5.842;2024-02-26T09:31:30;21.97;;;12.70;;
39020;SDS011;25188;51.958;5.842;2024-02-26T09:33:56;20.23;;;11.83;;
39020;SDS011;25188;51.958;5.842;2024-02-26T09:36:22;23.37;;;11.97;;
39020;SDS011;25188;51.958;5.842;2024-02-26T09:38:48;22.13;;;11.97;;
39020;SDS011;25188;51.958;5.842;2024-02-26T09:41:16;22.27;;;12.00;;
39020;SDS011;25188;51.958;5.842;2024-02-26T09:43:45;21.77;;;12.47;;
39020;SDS011;25188;51.958;5.842;2024-02-26T09:46:13;22.90;;;12.57;;
39020;SDS011;25188;51.958;5.842;2024-02-26T09:48:40;20.83;;;11.07;;
39020;SDS011;25188;51.958;5.842;2024-02-26T09:51:09;20.10;;;11.27;;
39020;SDS011;25188;51.958;5.842;2024-02-26T09:53:36;21.00;;;11.67;;
39020;SDS011;25188;51.958;5.842;2024-02-26T09:56:07;18.90;;;10.93;;
39020;SDS011;25188;51.958;5.842;2024-02-26T09:58:33;17.83;;;10.30;;
39020;SDS011;25188;51.958;5.842;2024-02-26T10:01:02;20.70;;;10.27;;
39020;SDS011;25188;51.958;5.842;2024-02-26T10:04:04;20.70;;;11.43;;
39020;SDS011;25188;51.958;5.842;2024-02-26T10:06:23;16.33;;;9.47;;
39020;SDS011;25188;51.958;5.842;2024-02-26T10:08:51;20.20;;;11.07;;
39020;SDS011;25188;51.958;5.842;2024-02-26T10:11:18;20.73;;;11.73;;
39020;SDS011;25188;51.958;5.842;2024-02-26T10:13:44;20.03;;;10.73;;
39020;SDS011;25188;51.958;5.842;2024-02-26T10:16:10;17.97;;;10.27;;
39020;SDS011;25188;51.958;5.842;2024-02-26T10:18:48;18.67;;;10.20;;
39020;SDS011;25188;51.958;5.842;2024-02-26T10:21:18;18.63;;;9.93;;
39020;SDS011;25188;51.958;5.842;2024-02-26T10:23:47;20.27;;;10.53;;
39020;SDS011;25188;51.958;5.842;2024-02-26T10:26:14;22.13;;;10.70;;
39020;SDS011;25188;51.958;5.842;2024-02-26T10:28:43;16.83;;;10.47;;
39020;SDS011;25188;51.958;5.842;2024-02-26T10:31:10;16.77;;;9.90;;
39020;SDS011;25188;51.958;5.842;2024-02-26T10:33:38;16.47;;;10.47;;
39020;SDS011;25188;51.958;5.842;2024-02-26T10:36:05;15.73;;;9.33;;
39020;SDS011;25188;51.958;5.842;2024-02-26T10:38:33;16.90;;;9.70;;
39020;SDS011;25188;51.958;5.842;2024-02-26T10:41:01;16.53;;;9.30;;
39020;SDS011;25188;51.958;5.842;2024-02-26T10:43:28;18.17;;;10.00;;
39020;SDS011;25188;51.958;5.842;2024-02-26T10:45:57;16.93;;;9.53;;
39020;SDS011;25188;51.958;5.842;2024-02-26T10:48:23;15.10;;;9.30;;
39020;SDS011;25188;51.958;5.842;2024-02-26T10:50:49;15.30;;;9.17;;
39020;SDS011;25188;51.958;5.842;2024-02-26T10:53:22;15.40;;;9.00;;
39020;SDS011;25188;51.958;5.842;2024-02-26T10:55:49;16.83;;;9.63;;
39020;SDS011;25188;51.958;5.842;2024-02-26T10:58:20;17.63;;;9.90;;
39020;SDS011;25188;51.958;5.842;2024-02-26T11:00:48;15.77;;;10.00;;
39020;SDS011;25188;51.958;5.842;2024-02-26T11:03:15;14.90;;;8.40;;
39020;SDS011;25188;51.958;5.842;2024-02-26T11:05:44;17.00;;;9.83;;
39020;SDS011;25188;51.958;5.842;2024-02-26T11:08:13;18.27;;;9.90;;
39020;SDS011;25188;51.958;5.842;2024-02-26T11:10:40;16.33;;;9.90;;
39020;SDS011;25188;51.958;5.842;2024-02-26T11:13:07;16.90;;;8.70;;
39020;SDS011;25188;51.958;5.842;2024-02-26T11:15:35;20.90;;;10.83;;
39020;SDS011;25188;51.958;5.842;2024-02-26T11:18:01;17.97;;;9.50;;
39020;SDS011;25188;51.958;5.842;2024-02-26T11:20:29;18.53;;;11.00;;
39020;SDS011;25188;51.958;5.842;2024-02-26T11:22:56;15.77;;;9.30;;
39020;SDS011;25188;51.958;5.842;2024-02-26T11:25:21;16.40;;;9.87;;
39020;SDS011;25188;51.958;5.842;2024-02-26T11:27:49;16.67;;;10.43;;
39020;SDS011;25188;51.958;5.842;2024-02-26T11:30:19;17.00;;;10.50;;
39020;SDS011;25188;51.958;5.842;2024-02-26T11:32:47;16.27;;;9.87;;
39020;SDS011;25188;51.958;5.842;2024-02-26T11:35:13;17.40;;;10.03;;
39020;SDS011;25188;51.958;5.842;2024-02-26T11:37:41;18.87;;;11.20;;
39020;SDS011;25188;51.958;5.842;2024-02-26T11:40:19;18.07;;;10.17;;
39020;SDS011;25188;51.958;5.842;2024-02-26T11:42:45;16.87;;;9.63;;
39020;SDS011;25188;51.958;5.842;2024-02-26T11:48:04;17.17;;;9.53;;
39020;SDS011;25188;51.958;5.842;2024-02-26T11:50:40;16.00;;;10.17;;
39020;SDS011;25188;51.958;5.842;2024-02-26T11:53:23;16.95;;;9.80;;
39020;SDS011;25188;51.958;5.842;2024-02-26T11:58:44;17.23;;;9.87;;
39020;SDS011;25188;51.958;5.842;2024-02-26T12:04:11;15.23;;;9.10;;
39020;SDS011;25188;51.958;5.842;2024-02-26T12:06:43;13.30;;;8.10;;
39020;SDS011;25188;51.958;5.842;2024-02-26T12:09:11;12.87;;;7.83;;
39020;SDS011;25188;51.958;5.842;2024-02-26T12:11:38;13.07;;;7.90;;
39020;SDS011;25188;51.958;5.842;2024-02-26T12:14:08;14.37;;;7.97;;
39020;SDS011;25188;51.958;5.842;2024-02-26T12:16:35;13.33;;;8.23;;
39020;SDS011;25188;51.958;5.842;2024-02-26T12:19:05;13.63;;;7.60;;
39020;SDS011;25188;51.958;5.842;2024-02-26T12:21:33;13.03;;;7.83;;
39020;SDS011;25188;51.958;5.842;2024-02-26T12:24:12;13.83;;;8.50;;
39020;SDS011;25188;51.958;5.842;2024-02-26T12:26:39;15.83;;;7.70;;
39020;SDS011;25188;51.958;5.842;2024-02-26T12:29:05;15.07;;;7.13;;
39020;SDS011;25188;51.958;5.842;2024-02-26T12:31:32;11.93;;;7.17;;
39020;SDS011;25188;51.958;5.842;2024-02-26T12:33:58;13.60;;;7.20;;
39020;SDS011;25188;51.958;5.842;2024-02-26T12:36:27;14.17;;;7.77;;
39020;SDS011;25188;51.958;5.842;2024-02-26T12:38:53;12.80;;;6.87;;
39020;SDS011;25188;51.958;5.842;2024-02-26T12:41:18;11.03;;;6.53;;
39020;SDS011;25188;51.958;5.842;2024-02-26T12:43:45;13.07;;;6.70;;
39020;SDS011;25188;51.958;5.842;2024-02-26T12:46:11;10.60;;;6.27;;
39020;SDS011;25188;51.958;5.842;2024-02-26T12:48:38;11.70;;;6.43;;
39020;SDS011;25188;51.958;5.842;2024-02-26T12:51:04;11.00;;;6.03;;
39020;SDS011;25188;51.958;5.842;2024-02-26T12:53:31;10.53;;;5.73;;
39020;SDS011;25188;51.958;5.842;2024-02-26T12:55:57;10.10;;;5.67;;
39020;SDS011;25188;51.958;5.842;2024-02-26T12:58:23;12.20;;;6.03;;
39020;SDS011;25188;51.958;5.842;2024-02-26T13:00:52;12.27;;;6.20;;
39020;SDS011;25188;51.958;5.842;2024-02-26T13:03:19;13.03;;;6.60;;
39020;SDS011;25188;51.958;5.842;2024-02-26T13:05:47;11.73;;;6.30;;
39020;SDS011;25188;51.958;5.842;2024-02-26T13:08:19;12.57;;;6.27;;
39020;SDS011;25188;51.958;5.842;2024-02-26T13:10:46;11.30;;;5.80;;
39020;SDS011;25188;51.958;5.842;2024-02-26T13:13:14;11.93;;;6.53;;
39020;SDS011;25188;51.958;5.842;2024-02-26T13:15:44;12.63;;;6.97;;
39020;SDS011;25188;51.958;5.842;2024-02-26T13:18:11;10.93;;;6.30;;
39020;SDS011;25188;51.958;5.842;2024-02-26T13:20:38;9.70;;;5.43;;
39020;SDS011;25188;51.958;5.842;2024-02-26T13:23:08;12.63;;;6.67;;
39020;SDS011;25188;51.958;5.842;2024-02-26T13:25:36;12.37;;;7.00;;
39020;SDS011;25188;51.958;5.842;2024-02-26T13:28:07;10.83;;;6.50;;
39020;SDS011;25188;51.958;5.842;2024-02-26T13:30:34;12.97;;;6.77;;
39020;SDS011;25188;51.958;5.842;2024-02-26T13:33:10;11.37;;;6.67;;
39020;SDS011;25188;51.958;5.842;2024-02-26T13:35:37;12.57;;;6.50;;
39020;SDS011;25188;51.958;5.842;2024-02-26T13:38:04;9.97;;;5.67;;
39020;SDS011;25188;51.958;5.842;2024-02-26T13:40:31;11.47;;;6.47;;
39020;SDS011;25188;51.958;5.842;2024-02-26T13:42:57;13.57;;;6.87;;
39020;SDS011;25188;51.958;5.842;2024-02-26T13:45:23;12.63;;;7.07;;
39020;SDS011;25188;51.958;5.842;2024-02-26T13:47:48;11.83;;;7.07;;
39020;SDS011;25188;51.958;5.842;2024-02-26T13:50:14;10.63;;;6.73;;
39020;SDS011;25188;51.958;5.842;2024-02-26T13:52:40;10.57;;;6.30;;
39020;SDS011;25188;51.958;5.842;2024-02-26T13:55:07;11.60;;;6.73;;
39020;SDS011;25188;51.958;5.842;2024-02-26T13:57:33;12.23;;;7.20;;
39020;SDS011;25188;51.958;5.842;2024-02-26T13:59:59;12.43;;;7.13;;
39020;SDS011;25188;51.958;5.842;2024-02-26T14:02:24;13.43;;;6.83;;
39020;SDS011;25188;51.958;5.842;2024-02-26T14:04:50;10.57;;;6.40;;
39020;SDS011;25188;51.958;5.842;2024-02-26T14:07:16;12.70;;;7.63;;
39020;SDS011;25188;51.958;5.842;2024-02-26T14:09:44;10.70;;;6.60;;
39020;SDS011;25188;51.958;5.842;2024-02-26T14:12:10;11.60;;;7.23;;
39020;SDS011;25188;51.958;5.842;2024-02-26T14:14:36;10.23;;;6.17;;
39020;SDS011;25188;51.958;5.842;2024-02-26T14:17:04;12.10;;;7.30;;
39020;SDS011;25188;51.958;5.842;2024-02-26T14:19:30;12.30;;;6.80;;
39020;SDS011;25188;51.958;5.842;2024-02-26T14:21:56;13.07;;;7.53;;
39020;SDS011;25188;51.958;5.842;2024-02-26T14:24:22;13.60;;;7.87;;
39020;SDS011;25188;51.958;5.842;2024-02-26T14:26:47;12.50;;;7.17;;
39020;SDS011;25188;51.958;5.842;2024-02-26T14:29:13;12.13;;;7.00;;
39020;SDS011;25188;51.958;5.842;2024-02-26T14:31:39;10.80;;;6.77;;
39020;SDS011;25188;51.958;5.842;2024-02-26T14:34:05;12.20;;;7.13;;
39020;SDS011;25188;51.958;5.842;2024-02-26T14:36:32;11.77;;;7.07;;
39020;SDS011;25188;51.958;5.842;2024-02-26T14:38:57;12.23;;;7.27;;
39020;SDS011;25188;51.958;5.842;2024-02-26T14:41:23;10.00;;;6.13;;
39020;SDS011;25188;51.958;5.842;2024-02-26T14:43:49;13.83;;;6.73;;